Genius — 2CPA7 — position and weather

sailwx.info

Track history (hours):
 
Tides and Currents Weather Stations Pressure Air Temp Water Temp Dewpoint Dewpoint Depression Visibility Wind Speed Wind Dir Waves Ship Positions

Genius

Last reported at 2015-Jan-28 00:29 UTC. Time now 2015-Jan-30 10:58 UTC.
Position N 22°04' E 114°30'.

Length 288 m; draft 9.4 m.

Type: Cargo ship. MMSI: 235074615.

Date/timePositionNaut miles runAvg speedWind from/ knotsBaromVisibWave heightAir tempDewpointWater temp
2015-Jan-28 00:29N 22°04' E 114°30'30010.8
2015-Jan-26 20:33N 22°31' E 119°53'1312.5
2015-Jan-26 19:33N 22°43' E 119°53'1312.5
2015-Jan-26 18:33N 22°56' E 119°53'42512.0
2015-Jan-25 07:13N 29°36' E 122°34'812.2
2015-Jan-25 06:34N 29°41' E 122°27'1212.0
2015-Jan-25 05:33N 29°47' E 122°15'1111.3
2015-Jan-25 04:33N 29°55' E 122°06'1010.4
2015-Jan-25 03:33N 29°57' E 121°54'1 1.3
2015-Jan-25 02:33N 29°57' E 121°53'0 0.1
2015-Jan-25 00:21N 29°57' E 121°53'0 0.0
2015-Jan-24 23:15N 29°57' E 121°53'0 0.4
2015-Jan-24 22:34N 29°57' E 121°53'1 0.3
2015-Jan-24 20:12N 29°56' E 121°53'0 0.0
2015-Jan-24 19:24N 29°56' E 121°53'0 0.0
2015-Jan-24 18:12N 29°56' E 121°53'0 0.0
2015-Jan-24 17:30N 29°56' E 121°53'0 0.0
2015-Jan-24 16:30N 29°56' E 121°53'0 0.0
2015-Jan-24 15:30N 29°56' E 121°53'0 0.0
2015-Jan-24 14:30N 29°56' E 121°53'0 0.0
2015-Jan-24 13:30N 29°56' E 121°53'0 0.0
2015-Jan-24 12:29N 29°56' E 121°53'0 0.0
2015-Jan-24 11:29N 29°56' E 121°53'0 0.0
2015-Jan-24 10:29N 29°56' E 121°53'0 0.0
2015-Jan-24 07:29N 29°56' E 121°53'0 0.0
2015-Jan-24 06:12N 29°56' E 121°53'0 0.0
2015-Jan-24 05:11N 29°56' E 121°53'0 0.0
2015-Jan-24 00:17N 29°56' E 121°53'0 0.0
2015-Jan-23 23:29N 29°56' E 121°53'0 0.0
2015-Jan-23 22:30N 29°56' E 121°53'0 0.0
2015-Jan-23 21:11N 29°56' E 121°53'0 0.0
2015-Jan-23 20:17N 29°56' E 121°53'0 0.0
2015-Jan-23 19:23N 29°56' E 121°53'0 0.0
2015-Jan-23 18:29N 29°56' E 121°53'0 0.0
2015-Jan-23 17:23N 29°56' E 121°53'0 0.0
2015-Jan-23 16:05N 29°56' E 121°53'0 0.0
2015-Jan-23 12:29N 29°56' E 121°53'0 0.0
2015-Jan-23 10:23N 29°56' E 121°53'0 0.0
2015-Jan-23 08:11N 29°56' E 121°53'0 0.0
2015-Jan-23 07:29N 29°56' E 121°53'0 0.0
2015-Jan-23 06:23N 29°56' E 121°53'0 0.0
2015-Jan-23 05:29N 29°56' E 121°53'0 0.0
2015-Jan-23 03:23N 29°56' E 121°53'0 0.0
2015-Jan-23 02:32N 29°56' E 121°53'0 0.0
2015-Jan-23 01:15N 29°56' E 121°53'0 0.0
2015-Jan-23 00:20N 29°56' E 121°53'0 0.0
2015-Jan-22 23:32N 29°56' E 121°53'0 0.0
2015-Jan-22 22:32N 29°56' E 121°53'0 0.0
2015-Jan-22 21:20N 29°56' E 121°53'0 0.0
2015-Jan-22 20:26N 29°56' E 121°53'0 0.0
2015-Jan-22 19:32N 29°56' E 121°53'0 0.0
2015-Jan-22 18:32N 29°56' E 121°53'0 0.0
2015-Jan-22 17:32N 29°56' E 121°53'0 0.0
2015-Jan-22 16:32N 29°56' E 121°53'0 0.0
2015-Jan-22 15:32N 29°56' E 121°53'0 0.0
2015-Jan-22 14:20N 29°56' E 121°53'0 0.0
2015-Jan-22 13:32N 29°56' E 121°53'0 0.0
2015-Jan-22 12:26N 29°56' E 121°53'0 0.0
2015-Jan-22 11:14N 29°56' E 121°53'0 0.0
2015-Jan-22 10:32N 29°56' E 121°53'0 0.0
2015-Jan-22 09:32N 29°56' E 121°53'0 0.0
2015-Jan-22 08:32N 29°56' E 121°53'0 0.0
2015-Jan-22 07:32N 29°56' E 121°53'0 0.0
2015-Jan-22 06:32N 29°56' E 121°53'0 0.0
2015-Jan-22 05:32N 29°56' E 121°53'0 0.1
2015-Jan-22 04:33N 29°56' E 121°53'5 5.0
2015-Jan-22 03:33N 29°58' E 121°58'1212.3
2015-Jan-22 02:33N 29°53' E 122°11'1010.3
2015-Jan-22 01:33N 29°45' E 122°20'1211.6
2015-Jan-22 00:33N 29°43' E 122°33'2 1.1
2015-Jan-21 22:49N 29°45' E 122°34'0 0.1
2015-Jan-21 22:13N 29°45' E 122°34'0 0.1
2015-Jan-21 21:31N 29°45' E 122°34'0 0.1
2015-Jan-21 16:19N 29°45' E 122°34'0 0.1
2015-Jan-21 14:25N 29°45' E 122°34'0 0.1
2015-Jan-21 12:13N 29°45' E 122°34'0 0.0
2015-Jan-21 01:19N 29°45' E 122°34'0 0.1
2015-Jan-21 00:07N 29°45' E 122°34'0 0.1
2015-Jan-20 22:07N 29°45' E 122°34'0 0.1
2015-Jan-20 21:25N 29°45' E 122°34'0 0.1
2015-Jan-20 20:25N 29°45' E 122°34'0 0.1
2015-Jan-20 19:07N 29°45' E 122°34'0 0.1
2015-Jan-20 14:13N 29°45' E 122°34'0 0.1
2015-Jan-20 13:13N 29°45' E 122°34'0 0.1
2015-Jan-20 09:31N 29°45' E 122°34'0 0.1
2015-Jan-20 02:19N 29°45' E 122°34'0 0.1
2015-Jan-20 01:11N 29°45' E 122°34'2 3.6
2015-Jan-20 00:33N 29°43' E 122°35'9 8.8
2015-Jan-19 23:33N 29°34' E 122°34'2110.7
2015-Jan-19 21:33N 29°13' E 122°36'  
Track history (hours):
 
Tides and Currents Weather Stations Pressure Air Temp Water Temp Dewpoint Dewpoint Depression Visibility Wind Speed Wind Dir Waves Ship Positions

Genius

Last reported at 2015-Jan-28 00:29 UTC. Time now 2015-Jan-30 10:58 UTC.
Position N 22°04' E 114°30'.

Length 288 m; draft 9.4 m.

Type: Cargo ship. MMSI: 235074615.

Date/timePositionNaut miles runAvg speedWind from/ knotsBaromVisibWave heightAir tempDewpointWater temp
2015-Jan-28 00:29N 22°04' E 114°30'30010.8
2015-Jan-26 20:33N 22°31' E 119°53'1312.5
2015-Jan-26 19:33N 22°43' E 119°53'1312.5
2015-Jan-26 18:33N 22°56' E 119°53'42512.0
2015-Jan-25 07:13N 29°36' E 122°34'812.2
2015-Jan-25 06:34N 29°41' E 122°27'1212.0
2015-Jan-25 05:33N 29°47' E 122°15'1111.3
2015-Jan-25 04:33N 29°55' E 122°06'1010.4
2015-Jan-25 03:33N 29°57' E 121°54'1 1.3
2015-Jan-25 02:33N 29°57' E 121°53'0 0.1
2015-Jan-25 00:21N 29°57' E 121°53'0 0.0
2015-Jan-24 23:15N 29°57' E 121°53'0 0.4
2015-Jan-24 22:34N 29°57' E 121°53'1 0.3
2015-Jan-24 20:12N 29°56' E 121°53'0 0.0
2015-Jan-24 19:24N 29°56' E 121°53'0 0.0
2015-Jan-24 18:12N 29°56' E 121°53'0 0.0
2015-Jan-24 17:30N 29°56' E 121°53'0 0.0
2015-Jan-24 16:30N 29°56' E 121°53'0 0.0
2015-Jan-24 15:30N 29°56' E 121°53'0 0.0
2015-Jan-24 14:30N 29°56' E 121°53'0 0.0
2015-Jan-24 13:30N 29°56' E 121°53'0 0.0
2015-Jan-24 12:29N 29°56' E 121°53'0 0.0
2015-Jan-24 11:29N 29°56' E 121°53'0 0.0
2015-Jan-24 10:29N 29°56' E 121°53'0 0.0
2015-Jan-24 07:29N 29°56' E 121°53'0 0.0
2015-Jan-24 06:12N 29°56' E 121°53'0 0.0
2015-Jan-24 05:11N 29°56' E 121°53'0 0.0
2015-Jan-24 00:17N 29°56' E 121°53'0 0.0
2015-Jan-23 23:29N 29°56' E 121°53'0 0.0
2015-Jan-23 22:30N 29°56' E 121°53'0 0.0
2015-Jan-23 21:11N 29°56' E 121°53'0 0.0
2015-Jan-23 20:17N 29°56' E 121°53'0 0.0
2015-Jan-23 19:23N 29°56' E 121°53'0 0.0
2015-Jan-23 18:29N 29°56' E 121°53'0 0.0
2015-Jan-23 17:23N 29°56' E 121°53'0 0.0
2015-Jan-23 16:05N 29°56' E 121°53'0 0.0
2015-Jan-23 12:29N 29°56' E 121°53'0 0.0
2015-Jan-23 10:23N 29°56' E 121°53'0 0.0
2015-Jan-23 08:11N 29°56' E 121°53'0 0.0
2015-Jan-23 07:29N 29°56' E 121°53'0 0.0
2015-Jan-23 06:23N 29°56' E 121°53'0 0.0
2015-Jan-23 05:29N 29°56' E 121°53'0 0.0
2015-Jan-23 03:23N 29°56' E 121°53'0 0.0
2015-Jan-23 02:32N 29°56' E 121°53'0 0.0
2015-Jan-23 01:15N 29°56' E 121°53'0 0.0
2015-Jan-23 00:20N 29°56' E 121°53'0 0.0
2015-Jan-22 23:32N 29°56' E 121°53'0 0.0
2015-Jan-22 22:32N 29°56' E 121°53'0 0.0
2015-Jan-22 21:20N 29°56' E 121°53'0 0.0
2015-Jan-22 20:26N 29°56' E 121°53'0 0.0
2015-Jan-22 19:32N 29°56' E 121°53'0 0.0
2015-Jan-22 18:32N 29°56' E 121°53'0 0.0
2015-Jan-22 17:32N 29°56' E 121°53'0 0.0
2015-Jan-22 16:32N 29°56' E 121°53'0 0.0
2015-Jan-22 15:32N 29°56' E 121°53'0 0.0
2015-Jan-22 14:20N 29°56' E 121°53'0 0.0
2015-Jan-22 13:32N 29°56' E 121°53'0 0.0
2015-Jan-22 12:26N 29°56' E 121°53'0 0.0
2015-Jan-22 11:14N 29°56' E 121°53'0 0.0
2015-Jan-22 10:32N 29°56' E 121°53'0 0.0
2015-Jan-22 09:32N 29°56' E 121°53'0 0.0
2015-Jan-22 08:32N 29°56' E 121°53'0 0.0
2015-Jan-22 07:32N 29°56' E 121°53'0 0.0
2015-Jan-22 06:32N 29°56' E 121°53'0 0.0
2015-Jan-22 05:32N 29°56' E 121°53'0 0.1
2015-Jan-22 04:33N 29°56' E 121°53'5 5.0
2015-Jan-22 03:33N 29°58' E 121°58'1212.3
2015-Jan-22 02:33N 29°53' E 122°11'1010.3
2015-Jan-22 01:33N 29°45' E 122°20'1211.6
2015-Jan-22 00:33N 29°43' E 122°33'2 1.1
2015-Jan-21 22:49N 29°45' E 122°34'0 0.1
2015-Jan-21 22:13N 29°45' E 122°34'0 0.1
2015-Jan-21 21:31N 29°45' E 122°34'0 0.1
2015-Jan-21 16:19N 29°45' E 122°34'0 0.1
2015-Jan-21 14:25N 29°45' E 122°34'0 0.1
2015-Jan-21 12:13N 29°45' E 122°34'0 0.0
2015-Jan-21 01:19N 29°45' E 122°34'0 0.1
2015-Jan-21 00:07N 29°45' E 122°34'0 0.1
2015-Jan-20 22:07N 29°45' E 122°34'0 0.1
2015-Jan-20 21:25N 29°45' E 122°34'0 0.1
2015-Jan-20 20:25N 29°45' E 122°34'0 0.1
2015-Jan-20 19:07N 29°45' E 122°34'0 0.1
2015-Jan-20 14:13N 29°45' E 122°34'0 0.1
2015-Jan-20 13:13N 29°45' E 122°34'0 0.1
2015-Jan-20 09:31N 29°45' E 122°34'0 0.1
2015-Jan-20 02:19N 29°45' E 122°34'0 0.1
2015-Jan-20 01:11N 29°45' E 122°34'2 3.6
2015-Jan-20 00:33N 29°43' E 122°35'9 8.8
2015-Jan-19 23:33N 29°34' E 122°34'2110.7
2015-Jan-19 21:33N 29°13' E 122°36'  

Dump ship's entire track history